14:56
Airports
Links
Donate
Help keep this website running!
PayPal
Bitcoin
METAR
TNCM 161400Z 10010KT 070V130 9999 SCT020 28/22 Q1018 A3007 NOSIG
Current Weather Conditions at TNCM
VFR 14:00:00 16-01-18
Altimeter:30.06 hg
Temp:28.0°c 82°f
Dew point:22.0°c 72°f
Wind:10 knots, 11.5 mph, 5 m/s, from 100°
Visibility:6.21 statute miles
2000(SCT) Scattered
No significant weather changes expected within 2 hours.
Past METAR reports
VFR 13:00:00 16-01-18
Altimeter:30.06 hg
Temp:27.0°c 81°f
Dew point:22.0°c 72°f
Wind:9 knots, 10.4 mph, 5 m/s, from 90°
Visibility:6.21 statute miles
1900(FEW) A few
No significant weather changes expected within 2 hours.
TNCM 161300Z 09009KT 050V140 9999 FEW019 27/22 Q1018 A3007 NOSIG
VFR 12:00:00 16-01-18
Altimeter:30.03 hg
Temp:26.0°c 79°f
Dew point:22.0°c 72°f
Wind:7 knots, 8.1 mph, 4 m/s, from 90°
Visibility:6.21 statute miles
1700(SCT) Scattered
No significant weather changes expected within 2 hours.
TNCM 161200Z 09007KT 060V130 9999 -SHRA SCT017 26/22 Q1017 A3005 NOSIG
VFR 11:00:00 16-01-18
Altimeter:30.00 hg
Temp:25.0°c 77°f
Dew point:22.0°c 72°f
Wind:5 knots, 5.8 mph, 3 m/s, from 90°
Visibility:6.21 statute miles
1600(SCT) Scattered
No significant weather changes expected within 2 hours.
TNCM 161100Z COR 09005KT 050V130 9999 VCSH SCT016TCU 25/22 Q1016 A3003 NOSIG RMK TCU W/ VCSH NE
VFR 10:00:00 16-01-18
Altimeter:30.00 hg
Temp:26.0°c 79°f
Dew point:22.0°c 72°f
Wind:8 knots, 9.2 mph, 4 m/s, from 90°
Visibility:6.21 statute miles
1800(SCT) Scattered
No significant weather changes expected within 2 hours.
TNCM 161000Z 09008KT 060V120 9999 SCT018 26/22 Q1016 A3000 NOSIG
TAF
TNCM 161140Z 1612/1712 09012KT P6SM SCT020
Forecast at TNCM
12:00 16-01-18 to 12:00 17-01-18
Wind:12 Knots from 90°
Visibility:6.21 statute miles
2000SCT Scattered